• Join FlightAware (Why Join?)
  • Login
  • US Flag 
09:59AM EDT


 

Airport Tracker/Info


-or-


 

Live Flight TrackerFlight Track Log ✈ FIN666 ✈ 23-Oct-2013 ✈ EKCH / CPH - EFHK / HEL

Flight Track Log - Related Links

Times and Time Zones

All times are in EDT time to prevent confusion due to time zone crossing. See the FIN666 flight status page for this flight to view local times or setup timezone preferences in your user account.

Time Position Orientation Groundspeed Altitude Reporting Facility
EDT Latitude Longitude Course Direction KTS MPH feet Rate Location/Type
07:34AM 56.0189 13.4911 49° Northeast  Level Estimated
07:35AM 56.0985 13.6603 50° Northeast  Level Estimated
07:36AM 56.1803 13.8355 50° Northeast  Level Estimated
07:37AM 56.2618 14.0114 50° Northeast  Level Estimated
07:38AM 56.3431 14.1881 50° Northeast  Level Estimated
07:39AM 56.4242 14.3656 50° Northeast  Level Estimated
07:40AM 56.5050 14.5438 51° Northeast  Level Estimated
07:41AM 56.5855 14.7228 51° Northeast  Level Estimated
07:42AM 56.6658 14.9025 51° Northeast  Level Estimated
07:43AM 56.7458 15.0830 51° Northeast  Level Estimated
07:44AM 56.8256 15.2643 51° Northeast  Level Estimated
07:45AM 56.9050 15.4464 51° Northeast  Level Estimated
07:46AM 56.9843 15.6292 51° Northeast  Level Estimated
07:47AM 57.0632 15.8128 52° Northeast  Level Estimated
07:48AM 57.1419 15.9972 52° Northeast  Level Estimated
07:49AM 57.2203 16.1824 52° Northeast  Level Estimated
07:50AM 57.2985 16.3683 52° Northeast  Level Estimated
07:51AM 57.3764 16.5551 52° Northeast  Level Estimated
07:52AM 57.4539 16.7426 52° Northeast  Level Estimated
07:53AM 57.5313 16.9310 53° Northeast  Level Estimated
07:54AM 57.6083 17.1201 53° Northeast  Level Estimated
07:55AM 57.6850 17.3100 53° Northeast  Level Estimated
07:56AM 57.7615 17.5008 53° Northeast  Level Estimated
07:57AM 57.8377 17.6923 53° Northeast  Level Estimated
07:58AM 57.9136 17.8847 53° Northeast  Level Estimated
07:59AM 57.9892 18.0779 54° Northeast  Level Estimated
08:00AM 58.0645 18.2719 54° Northeast  Level Estimated
08:01AM 58.1395 18.4667 54° Northeast  Level Estimated
08:02AM 58.2142 18.6623 54° Northeast  Level Estimated
08:03AM 58.2886 18.8587 54° Northeast  Level Estimated
08:04AM 58.3627 19.0560 54° Northeast  Level Estimated
08:05AM 58.4365 19.2541 55° Northeast  Level Estimated
08:06AM 58.5100 19.4531 55° Northeast  Level Estimated
08:07AM 58.5831 19.6528 55° Northeast  Level Estimated
08:08AM 58.6560 19.8535 55° Northeast  Level Estimated
08:09AM 58.7286 20.0549 55° Northeast  Level Estimated
08:10AM 58.8008 20.2572 55° Northeast  Level Estimated
08:11AM 58.8727 20.4603 56° Northeast  Level Estimated
08:12AM 58.9443 20.6643 56° Northeast  Level Estimated
08:13AM 59.0156 20.8691 56° Northeast  Level Estimated
08:14AM 59.0844 21.0684 56° Northeast  Level Estimated
08:15AM 59.1529 21.2685 56° Northeast  Level Estimated
08:16AM 59.2210 21.4695 56° Northeast  Level Estimated
08:17AM 59.2889 21.6712 57° Northeast  Level Estimated
08:18AM 59.3564 21.8737 57° Northeast  Level Estimated
08:19AM 59.4236 22.0770 57° Northeast  Level Estimated
08:20AM 59.4906 22.2812 57° Northeast  Level Estimated
08:21AM 59.5572 22.4861 57° Northeast  Level Estimated
08:22AM 59.6234 22.6919 57° Northeast  Level Estimated
08:23AM 59.6894 22.8985 58° Northeast  Level Estimated
08:24AM 59.7550 23.1059 58° Northeast  Level Estimated
08:25AM 59.8203 23.3141 58° Northeast  Level Estimated
08:26AM 59.8852 23.5231 58° Northeast  Level Estimated
08:27AM 59.9499 23.7329 58° Northeast  Level Estimated
08:28AM 60.0141 23.9436 59° Northeast  Level Estimated
08:29AM 60.0781 24.1550 59° Northeast  Level Estimated
08:30AM 60.1417 24.3673 59° Northeast  Level Estimated
08:31AM 60.2050 24.5804 59° Northeast  Level Estimated
08:32AM 60.2679 24.7944 59° Northeast  Level Estimated
08:33AM 60.3172 24.9633 59° Northeast  Level Estimated
08:34AM 60.3172 24.9633 37° Northeast  Level Estimated
08:35AM 60.3172 24.9633 37° Northeast  Level Estimated
08:36AM 60.3172 24.9633 37° Northeast  Level Estimated
08:37AM 60.3172 24.9633 37° Northeast  Level Estimated
08:38AM 60.3172 24.9633 37° Northeast  Level Estimated
08:39AM 60.3172 24.9633 37° Northeast  Level Estimated
08:40AM 60.3172 24.9633 37° Northeast  Level Estimated
08:41AM 60.3172 24.9633 37° Northeast  Level Estimated
08:42AM 60.3172 24.9633 37° Northeast  Level Estimated
08:43AM 60.3172 24.9633 37° Northeast  Level Estimated
08:44AM 60.3172 24.9633 37° Northeast  Level Estimated
08:45AM 60.3172 24.9633 37° Northeast  Level Estimated